createdAt,value
2023-01-26T00:00:35.093Z,22.23
2023-01-26T00:03:06.836Z,22.08
2023-01-26T00:05:38.481Z,21.17
2023-01-26T00:08:12.455Z,22.00
2023-01-26T00:10:42.379Z,23.25
2023-01-26T00:13:14.472Z,23.38
2023-01-26T00:15:44.000Z,23.20
2023-01-26T00:18:16.746Z,23.73
2023-01-26T00:20:48.172Z,22.83
2023-01-26T00:23:16.507Z,23.20
2023-01-26T00:25:47.755Z,24.23
2023-01-26T00:28:16.283Z,24.25
2023-01-26T00:30:44.728Z,25.08
2023-01-26T00:33:14.603Z,22.88
2023-01-26T00:35:44.747Z,26.95
2023-01-26T00:38:13.004Z,24.27
2023-01-26T00:40:41.743Z,23.98
2023-01-26T00:43:09.943Z,26.15
2023-01-26T00:45:38.218Z,26.20
2023-01-26T00:48:06.754Z,24.35
2023-01-26T00:50:36.486Z,26.50
2023-01-26T00:53:04.770Z,26.25
2023-01-26T00:55:37.562Z,23.77
2023-01-26T00:58:06.875Z,24.80
2023-01-26T01:00:36.465Z,26.50
2023-01-26T01:03:05.226Z,25.42
2023-01-26T01:05:36.110Z,25.58
2023-01-26T01:08:04.319Z,27.08
2023-01-26T01:10:32.679Z,28.98
2023-01-26T01:13:01.030Z,27.38
2023-01-26T01:15:29.210Z,25.13
2023-01-26T01:17:57.474Z,25.50
2023-01-26T01:20:25.621Z,26.58
2023-01-26T01:22:55.131Z,27.15
2023-01-26T01:25:24.754Z,27.23
2023-01-26T01:27:54.505Z,29.05
2023-01-26T01:30:23.582Z,30.65
2023-01-26T01:32:52.270Z,29.55
2023-01-26T01:35:20.431Z,26.70
2023-01-26T01:37:48.554Z,28.50
2023-01-26T01:40:18.236Z,28.90
2023-01-26T01:42:49.744Z,28.55
2023-01-26T01:45:42.346Z,27.00
2023-01-26T01:48:22.559Z,29.15
2023-01-26T01:50:51.606Z,29.80
2023-01-26T01:53:24.625Z,28.92
2023-01-26T01:55:56.951Z,28.77
2023-01-26T01:58:25.223Z,29.20
2023-01-26T02:00:53.399Z,28.35
2023-01-26T02:03:22.158Z,31.05
2023-01-26T02:05:57.261Z,30.17
2023-01-26T02:08:28.472Z,30.58
2023-01-26T02:10:59.895Z,28.98
2023-01-26T02:13:28.917Z,30.58
2023-01-26T02:16:08.004Z,31.17
2023-01-26T02:18:54.181Z,30.48
2023-01-26T02:22:06.870Z,28.33
2023-01-26T02:24:37.207Z,29.65
2023-01-26T02:27:07.075Z,52.28
2023-01-26T02:29:35.395Z,35.25
2023-01-26T02:32:03.801Z,45.58
2023-01-26T02:34:31.967Z,33.13
2023-01-26T02:37:00.230Z,35.40
2023-01-26T02:39:40.248Z,33.63
2023-01-26T02:42:31.264Z,33.03
2023-01-26T02:45:04.096Z,42.83
2023-01-26T02:47:32.338Z,33.45
2023-01-26T02:50:01.203Z,30.92
2023-01-26T02:52:32.061Z,38.92
2023-01-26T02:55:26.507Z,31.25
2023-01-26T02:57:57.358Z,31.08
2023-01-26T03:00:27.420Z,43.53
2023-01-26T03:03:00.891Z,32.65
2023-01-26T03:05:29.536Z,32.22
2023-01-26T03:07:57.830Z,30.65
2023-01-26T03:10:27.171Z,30.55
2023-01-26T03:12:56.709Z,31.40
2023-01-26T03:15:43.930Z,29.77
2023-01-26T03:18:31.216Z,32.75
2023-01-26T03:21:18.116Z,33.70
2023-01-26T03:24:04.011Z,37.65
2023-01-26T03:26:50.110Z,36.92
2023-01-26T03:29:19.678Z,37.92
2023-01-26T03:31:48.105Z,33.53
2023-01-26T03:34:16.210Z,33.92
2023-01-26T03:36:44.393Z,34.25
2023-01-26T03:39:32.594Z,33.63
2023-01-26T03:42:17.992Z,37.33
2023-01-26T03:45:05.878Z,33.97
2023-01-26T03:47:53.732Z,34.35
2023-01-26T03:50:39.667Z,33.80
2023-01-26T03:53:32.581Z,35.08
2023-01-26T03:56:21.743Z,31.02
2023-01-26T03:58:51.755Z,33.28
2023-01-26T04:01:26.508Z,34.97
2023-01-26T04:04:13.746Z,34.13
2023-01-26T04:07:01.001Z,36.55
2023-01-26T04:09:29.959Z,33.35
2023-01-26T04:11:58.172Z,33.95
2023-01-26T04:14:49.893Z,36.05
2023-01-26T04:17:37.729Z,32.97
2023-01-26T04:20:24.965Z,33.75
2023-01-26T04:22:53.135Z,32.17
2023-01-26T04:25:24.070Z,33.42
2023-01-26T04:27:52.367Z,31.77
2023-01-26T04:30:21.209Z,32.65
2023-01-26T04:32:52.323Z,34.25
2023-01-26T04:35:20.531Z,32.22
2023-01-26T04:37:49.254Z,34.63
2023-01-26T04:40:17.628Z,34.88
2023-01-26T04:42:46.104Z,33.88
2023-01-26T04:45:14.331Z,33.58
2023-01-26T04:47:42.538Z,33.92
2023-01-26T04:50:13.293Z,32.10
2023-01-26T04:52:42.199Z,31.83
2023-01-26T04:55:11.031Z,32.90
2023-01-26T04:57:39.289Z,33.90
2023-01-26T05:00:10.882Z,32.97
2023-01-26T05:02:40.376Z,33.58
2023-01-26T05:05:09.322Z,32.10
2023-01-26T05:07:38.966Z,34.88
2023-01-26T05:10:08.128Z,32.70
2023-01-26T05:12:38.259Z,32.47
2023-01-26T05:15:07.099Z,34.53
2023-01-26T05:17:36.254Z,34.00
2023-01-26T05:20:05.336Z,31.95
2023-01-26T05:22:33.508Z,31.42
2023-01-26T05:25:03.071Z,31.75
2023-01-26T05:27:31.291Z,33.50
2023-01-26T05:30:01.002Z,31.73
2023-01-26T05:32:29.629Z,31.95
2023-01-26T05:34:58.301Z,31.70
2023-01-26T05:37:27.172Z,31.17
2023-01-26T05:39:55.544Z,32.60
2023-01-26T05:42:25.253Z,31.50
2023-01-26T05:44:53.602Z,29.10
2023-01-26T05:47:21.952Z,30.50
2023-01-26T05:49:50.455Z,30.98
2023-01-26T05:52:20.142Z,30.50
2023-01-26T05:54:49.218Z,33.03
2023-01-26T05:57:18.180Z,31.67
2023-01-26T05:59:47.885Z,28.58
2023-01-26T06:02:16.907Z,29.35
2023-01-26T06:04:45.494Z,28.23
2023-01-26T06:07:14.087Z,30.27
2023-01-26T06:09:42.573Z,29.88
2023-01-26T06:12:16.812Z,30.45
2023-01-26T06:14:47.154Z,29.05
2023-01-26T06:17:18.404Z,30.83
2023-01-26T06:19:46.637Z,29.60
2023-01-26T06:22:16.328Z,30.08
2023-01-26T06:24:44.888Z,29.20
2023-01-26T06:27:14.639Z,30.25
2023-01-26T06:29:42.901Z,28.70
2023-01-26T06:32:11.643Z,28.67
2023-01-26T06:34:41.486Z,27.10
2023-01-26T06:37:09.900Z,28.67
2023-01-26T06:39:41.809Z,29.35
2023-01-26T06:42:10.841Z,30.02
2023-01-26T06:44:39.299Z,32.85
2023-01-26T06:47:08.905Z,32.75
2023-01-26T06:49:37.655Z,30.92
2023-01-26T06:52:27.570Z,32.33
2023-01-26T06:54:56.165Z,32.50
2023-01-26T06:57:26.481Z,32.10
2023-01-26T06:59:56.260Z,33.53
2023-01-26T07:02:24.643Z,30.80
2023-01-26T07:04:53.139Z,30.60
2023-01-26T07:07:22.998Z,30.08
2023-01-26T07:09:51.294Z,30.38
2023-01-26T07:12:31.819Z,31.95
2023-01-26T07:15:28.512Z,31.42
2023-01-26T07:18:43.292Z,29.67
2023-01-26T07:21:56.647Z,31.70
2023-01-26T07:27:36.041Z,29.13
2023-01-26T07:30:09.271Z,29.40
2023-01-26T07:32:38.044Z,29.30
2023-01-26T07:35:07.286Z,28.80
2023-01-26T07:37:35.889Z,30.77
2023-01-26T07:40:12.226Z,29.95
2023-01-26T07:42:40.675Z,29.77
2023-01-26T07:45:09.810Z,29.35
2023-01-26T07:47:40.047Z,26.50
2023-01-26T07:50:10.613Z,29.80
2023-01-26T07:52:39.413Z,28.45
2023-01-26T07:58:12.550Z,27.50
2023-01-26T08:00:49.548Z,28.52
2023-01-26T08:03:19.537Z,28.88
2023-01-26T08:05:51.971Z,28.00
2023-01-26T08:08:23.379Z,29.55
2023-01-26T08:11:07.797Z,31.30
2023-01-26T08:13:36.356Z,29.27
2023-01-26T08:16:15.726Z,28.70
2023-01-26T08:18:45.404Z,29.77
2023-01-26T08:21:16.396Z,30.30
2023-01-26T08:23:52.154Z,29.88
2023-01-26T08:26:22.208Z,31.13
2023-01-26T08:28:56.772Z,30.83
2023-01-26T08:31:25.507Z,29.30
2023-01-26T08:33:57.755Z,28.42
2023-01-26T08:36:28.659Z,28.52
2023-01-26T08:39:32.747Z,29.05
2023-01-26T08:42:02.460Z,27.95
2023-01-26T08:44:30.582Z,28.88
2023-01-26T08:46:58.674Z,29.05
2023-01-26T08:49:26.746Z,29.05
2023-01-26T08:51:54.858Z,29.35
2023-01-26T08:54:23.501Z,30.20
2023-01-26T08:56:51.533Z,28.33
2023-01-26T08:59:21.059Z,28.25
2023-01-26T09:01:51.240Z,28.58
2023-01-26T09:04:19.476Z,28.33
2023-01-26T09:06:47.552Z,27.65
2023-01-26T09:09:15.677Z,29.00
2023-01-26T09:11:44.079Z,28.85
2023-01-26T09:14:12.218Z,29.85
2023-01-26T09:16:42.018Z,27.33
2023-01-26T09:19:10.170Z,31.25
2023-01-26T09:21:38.372Z,27.48
2023-01-26T09:24:07.184Z,28.67
2023-01-26T09:26:35.286Z,28.10
2023-01-26T09:29:03.750Z,31.15
2023-01-26T09:31:32.802Z,29.13
2023-01-26T09:34:02.352Z,30.48
2023-01-26T09:36:30.494Z,29.70
2023-01-26T09:38:58.600Z,27.42
2023-01-26T09:41:48.169Z,31.02
2023-01-26T09:44:20.874Z,33.97
2023-01-26T09:47:00.215Z,29.52
2023-01-26T09:49:33.353Z,30.80
2023-01-26T09:52:04.797Z,30.30
2023-01-26T09:54:35.655Z,30.30
2023-01-26T09:57:14.930Z,28.23
2023-01-26T09:59:47.557Z,27.52
2023-01-26T10:02:24.948Z,26.90
2023-01-26T10:04:58.631Z,28.50
2023-01-26T10:07:27.050Z,27.17
2023-01-26T10:09:55.357Z,30.42
2023-01-26T10:12:28.713Z,28.92
2023-01-26T10:15:00.508Z,28.02
2023-01-26T10:17:32.301Z,29.35
2023-01-26T10:20:06.329Z,27.92
2023-01-26T10:22:40.565Z,26.92
2023-01-26T10:25:17.342Z,26.73
2023-01-26T10:27:46.188Z,27.92
2023-01-26T10:30:15.903Z,26.45
2023-01-26T10:32:45.588Z,28.25
2023-01-26T10:35:19.917Z,29.10
2023-01-26T10:37:48.696Z,26.02
2023-01-26T10:40:17.940Z,27.35
2023-01-26T10:42:57.484Z,24.48
2023-01-26T10:45:27.969Z,23.92
2023-01-26T10:48:11.265Z,24.13
2023-01-26T10:50:40.833Z,23.92
2023-01-26T10:53:16.612Z,23.23
2023-01-26T10:55:45.019Z,23.40
2023-01-26T10:58:48.510Z,24.05
2023-01-26T11:01:19.064Z,22.80
2023-01-26T11:04:03.339Z,23.08
2023-01-26T11:06:33.167Z,21.77
2023-01-26T11:09:12.658Z,22.88
2023-01-26T11:11:40.878Z,21.83
2023-01-26T11:14:13.885Z,21.65
2023-01-26T11:19:14.467Z,22.02
2023-01-26T11:21:48.129Z,21.48
2023-01-26T11:24:21.287Z,24.25
2023-01-26T11:27:16.354Z,24.15
2023-01-26T11:30:11.110Z,23.60
2023-01-26T11:32:45.021Z,23.65
2023-01-26T11:35:19.150Z,23.10
2023-01-26T11:37:58.330Z,23.25
2023-01-26T11:40:32.083Z,23.02
2023-01-26T11:43:26.667Z,23.55
2023-01-26T11:46:09.526Z,23.50
2023-01-26T11:48:45.344Z,23.20
2023-01-26T11:51:22.502Z,22.45
2023-01-26T11:54:09.746Z,23.30
2023-01-26T11:56:46.688Z,24.23
2023-01-26T11:59:18.315Z,25.50
2023-01-26T12:01:52.265Z,25.05
2023-01-26T12:04:22.212Z,24.65
2023-01-26T12:06:54.140Z,21.63
2023-01-26T12:09:32.773Z,23.13
2023-01-26T12:12:05.409Z,24.08
2023-01-26T12:14:37.791Z,21.85
2023-01-26T12:17:28.690Z,20.92
2023-01-26T12:20:04.807Z,20.27
2023-01-26T12:22:35.435Z,22.70
2023-01-26T12:25:29.124Z,21.90
2023-01-26T12:28:01.287Z,20.25
2023-01-26T12:30:36.360Z,22.03
2023-01-26T12:33:04.616Z,21.63
2023-01-26T12:35:45.878Z,24.67
2023-01-26T12:38:18.510Z,23.08
2023-01-26T12:40:56.451Z,22.45
2023-01-26T12:43:45.624Z,23.58
2023-01-26T12:46:14.864Z,21.92
2023-01-26T12:48:44.785Z,20.00
2023-01-26T12:51:17.051Z,16.15
2023-01-26T12:53:53.216Z,18.67
2023-01-26T12:56:25.952Z,18.52
2023-01-26T12:58:55.377Z,18.52
2023-01-26T13:01:26.502Z,18.90
2023-01-26T13:03:57.215Z,17.25
2023-01-26T13:06:26.858Z,20.00
2023-01-26T13:09:04.616Z,20.13
2023-01-26T13:11:45.589Z,16.30
2023-01-26T13:14:59.739Z,15.50
2023-01-26T13:18:04.273Z,16.95
2023-01-26T13:20:50.187Z,16.45
2023-01-26T13:23:43.064Z,18.45
2023-01-26T13:26:16.258Z,16.67
2023-01-26T13:31:14.900Z,18.73
2023-01-26T13:33:43.848Z,17.00
2023-01-26T13:36:17.501Z,16.25
2023-01-26T13:38:48.932Z,18.25
2023-01-26T13:41:20.725Z,18.45
2023-01-26T13:43:53.034Z,18.60
2023-01-26T13:46:25.449Z,20.15
2023-01-26T13:48:54.439Z,17.30
2023-01-26T13:51:24.582Z,18.90
2023-01-26T13:53:59.457Z,20.45
2023-01-26T13:56:30.727Z,19.52
2023-01-26T13:59:11.728Z,20.20
2023-01-26T14:01:44.704Z,17.83
2023-01-26T14:06:48.726Z,19.83
2023-01-26T14:09:17.024Z,17.67
2023-01-26T14:11:45.324Z,20.77
2023-01-26T14:14:23.925Z,16.58
2023-01-26T14:16:52.350Z,17.92
2023-01-26T14:19:22.197Z,18.75
2023-01-26T14:21:52.182Z,18.73
2023-01-26T14:24:23.788Z,19.75
2023-01-26T14:26:52.053Z,18.90
2023-01-26T14:29:24.362Z,18.90
2023-01-26T14:31:53.497Z,19.92
2023-01-26T14:34:24.053Z,18.40
2023-01-26T14:37:07.177Z,17.88
2023-01-26T14:39:35.311Z,16.20
2023-01-26T14:42:04.000Z,15.25
2023-01-26T14:44:33.751Z,17.73
2023-01-26T14:47:05.668Z,16.13
2023-01-26T14:49:43.298Z,16.58
2023-01-26T14:52:19.231Z,16.30
2023-01-26T14:54:47.471Z,15.07
2023-01-26T14:57:19.740Z,14.90
2023-01-26T14:59:51.631Z,16.65
2023-01-26T15:02:22.816Z,16.98
2023-01-26T15:04:53.768Z,15.50
2023-01-26T15:07:35.016Z,16.33
2023-01-26T15:10:04.119Z,15.25
2023-01-26T15:12:35.580Z,18.60
2023-01-26T15:15:14.528Z,16.50
2023-01-26T15:17:43.909Z,17.67
2023-01-26T15:20:40.423Z,16.58
2023-01-26T15:23:25.049Z,17.50
2023-01-26T15:25:54.015Z,16.67
2023-01-26T15:28:25.983Z,15.95
2023-01-26T15:30:57.022Z,18.70
2023-01-26T15:33:51.335Z,18.48
2023-01-26T15:36:25.368Z,23.83
2023-01-26T15:38:59.549Z,20.92
2023-01-26T15:41:28.252Z,17.40
2023-01-26T15:43:56.575Z,18.67
2023-01-26T15:46:26.351Z,19.17
2023-01-26T15:48:54.571Z,18.17
2023-01-26T15:51:22.679Z,17.25
2023-01-26T15:53:50.897Z,20.05
2023-01-26T15:56:19.128Z,20.67
2023-01-26T15:58:47.385Z,17.13
2023-01-26T16:01:17.698Z,18.10
2023-01-26T16:03:47.450Z,18.40
2023-01-26T16:06:24.296Z,17.05
2023-01-26T16:08:52.591Z,18.88
2023-01-26T16:11:22.053Z,17.80
2023-01-26T16:14:02.887Z,17.10
2023-01-26T16:16:31.636Z,16.00
2023-01-26T16:19:01.578Z,18.13
2023-01-26T16:21:33.225Z,16.88
2023-01-26T16:24:02.089Z,16.23
2023-01-26T16:26:31.468Z,17.15
2023-01-26T16:29:00.306Z,16.23
2023-01-26T16:31:30.610Z,17.42
2023-01-26T16:34:01.132Z,17.52
2023-01-26T16:36:29.558Z,18.75
2023-01-26T16:38:57.921Z,17.17
2023-01-26T16:41:27.897Z,18.55
2023-01-26T16:43:57.724Z,19.80
2023-01-26T16:46:26.583Z,21.05
2023-01-26T16:48:55.511Z,18.70
2023-01-26T16:51:28.012Z,17.98
2023-01-26T16:53:56.739Z,19.08
2023-01-26T16:56:25.753Z,17.98
2023-01-26T16:58:53.972Z,19.08
2023-01-26T17:01:23.943Z,20.60
2023-01-26T17:03:52.848Z,22.27
2023-01-26T17:06:21.641Z,22.02
2023-01-26T17:08:52.964Z,23.58
2023-01-26T17:11:23.029Z,20.05
2023-01-26T17:13:52.046Z,19.88
2023-01-26T17:16:21.843Z,21.70
2023-01-26T17:18:50.788Z,20.83
2023-01-26T17:21:20.199Z,17.55
2023-01-26T17:23:51.990Z,17.60
2023-01-26T17:26:21.808Z,18.73
2023-01-26T17:28:51.325Z,20.13
2023-01-26T17:31:21.177Z,21.38
2023-01-26T17:33:50.693Z,25.80
2023-01-26T17:36:19.929Z,28.92
2023-01-26T17:38:48.459Z,24.30
2023-01-26T17:41:18.528Z,22.77
2023-01-26T17:43:47.843Z,17.83
2023-01-26T17:46:18.172Z,16.17
2023-01-26T17:48:47.070Z,18.02
2023-01-26T17:51:16.871Z,18.05
2023-01-26T17:53:46.314Z,20.77
2023-01-26T17:56:18.326Z,22.92
2023-01-26T17:58:49.853Z,20.95
2023-01-26T18:01:18.425Z,19.98
2023-01-26T18:03:46.980Z,20.63
2023-01-26T18:06:15.368Z,20.73
2023-01-26T18:08:43.993Z,18.60
2023-01-26T18:11:14.413Z,19.05
2023-01-26T18:13:44.566Z,19.83
2023-01-26T18:16:16.403Z,18.23
2023-01-26T18:18:45.121Z,18.45
2023-01-26T18:21:15.088Z,16.75
2023-01-26T18:23:46.372Z,17.17
2023-01-26T18:26:14.668Z,18.10
2023-01-26T18:28:44.771Z,18.27
2023-01-26T18:31:15.125Z,16.85
2023-01-26T18:33:43.725Z,18.40
2023-01-26T18:36:13.939Z,18.13
2023-01-26T18:38:42.978Z,17.80
2023-01-26T18:41:12.357Z,18.00
2023-01-26T18:43:41.367Z,19.52
2023-01-26T18:46:11.994Z,16.50
2023-01-26T18:48:40.386Z,18.20
2023-01-26T18:51:09.684Z,20.38
2023-01-26T18:53:40.143Z,17.65
2023-01-26T18:56:10.242Z,20.35
2023-01-26T18:58:39.710Z,18.90
2023-01-26T19:01:10.882Z,22.83
2023-01-26T19:03:47.386Z,20.52
2023-01-26T19:06:19.984Z,21.48
2023-01-26T19:08:49.177Z,23.52
2023-01-26T19:11:17.525Z,21.75
2023-01-26T19:13:48.879Z,25.48
2023-01-26T19:16:17.152Z,25.88
2023-01-26T19:18:47.002Z,22.35
2023-01-26T19:21:15.317Z,26.33
2023-01-26T19:23:43.547Z,25.05
2023-01-26T19:26:12.664Z,21.80
2023-01-26T19:28:42.012Z,33.60
2023-01-26T19:31:11.377Z,33.65
2023-01-26T19:33:40.100Z,28.25
2023-01-26T19:36:10.833Z,27.98
2023-01-26T19:38:40.289Z,23.30
2023-01-26T19:41:08.917Z,22.77
2023-01-26T19:43:37.425Z,21.08
2023-01-26T19:46:08.570Z,23.92
2023-01-26T19:48:36.876Z,23.83
2023-01-26T19:51:07.524Z,22.23
2023-01-26T19:53:38.666Z,26.20
2023-01-26T19:56:08.505Z,25.10
2023-01-26T19:58:37.203Z,26.85
2023-01-26T20:01:07.024Z,29.05
2023-01-26T20:03:35.511Z,29.88
2023-01-26T20:06:04.502Z,28.60
2023-01-26T20:08:33.316Z,27.85
2023-01-26T20:11:07.328Z,26.00
2023-01-26T20:13:36.212Z,31.13
2023-01-26T20:16:06.938Z,30.00
2023-01-26T20:18:35.749Z,27.42
2023-01-26T20:21:06.585Z,28.20
2023-01-26T20:23:36.859Z,25.63
2023-01-26T20:26:08.988Z,26.20
2023-01-26T20:28:38.062Z,24.48
2023-01-26T20:31:08.785Z,25.83
2023-01-26T20:33:37.358Z,27.48
2023-01-26T20:36:09.672Z,26.35
2023-01-26T20:38:38.337Z,26.98
2023-01-26T20:41:12.542Z,25.75
2023-01-26T20:43:53.109Z,24.77
2023-01-26T20:46:26.701Z,26.80
2023-01-26T20:48:56.750Z,29.25
2023-01-26T20:51:28.769Z,28.52
2023-01-26T20:53:57.524Z,29.13
2023-01-26T20:56:27.864Z,29.23
2023-01-26T20:58:56.932Z,30.75
2023-01-26T21:01:25.861Z,26.85
2023-01-26T21:03:54.428Z,28.70
2023-01-26T21:06:24.231Z,28.17
2023-01-26T21:08:55.261Z,26.15
2023-01-26T21:11:26.453Z,29.15
2023-01-26T21:13:56.413Z,28.80
2023-01-26T21:16:24.963Z,28.73
2023-01-26T21:18:53.339Z,29.55
2023-01-26T21:21:22.920Z,28.83
2023-01-26T21:23:51.734Z,28.83
2023-01-26T21:26:22.371Z,28.60
2023-01-26T21:28:53.319Z,27.02
2023-01-26T21:31:22.939Z,31.95
2023-01-26T21:33:51.835Z,28.00
2023-01-26T21:36:21.441Z,31.42
2023-01-26T21:38:52.135Z,30.83
2023-01-26T21:41:39.092Z,30.35
2023-01-26T21:44:10.274Z,29.60
2023-01-26T21:46:38.582Z,28.98
2023-01-26T21:49:07.855Z,31.08
2023-01-26T21:51:53.743Z,27.63
2023-01-26T21:54:22.375Z,28.63
2023-01-26T21:56:50.779Z,31.67
2023-01-26T21:59:19.640Z,29.48
2023-01-26T22:01:50.421Z,26.95
2023-01-26T22:04:19.986Z,28.23
2023-01-26T22:06:48.544Z,30.05
2023-01-26T22:09:18.163Z,36.40
2023-01-26T22:11:46.776Z,27.42
2023-01-26T22:14:16.783Z,31.52
2023-01-26T22:16:46.513Z,28.38
2023-01-26T22:19:15.032Z,28.48
2023-01-26T22:21:43.493Z,25.75
2023-01-26T22:24:13.368Z,27.00
2023-01-26T22:26:41.702Z,26.45
2023-01-26T22:29:11.051Z,23.98
2023-01-26T22:31:39.412Z,24.02
2023-01-26T22:34:09.161Z,26.58
2023-01-26T22:36:37.404Z,32.75
2023-01-26T22:39:05.689Z,27.35
2023-01-26T22:41:35.984Z,33.63
2023-01-26T22:44:04.310Z,34.60
2023-01-26T22:46:33.044Z,31.42
2023-01-26T22:49:01.462Z,31.77
2023-01-26T22:51:32.987Z,34.95
2023-01-26T22:54:01.421Z,30.05
2023-01-26T22:56:29.737Z,27.17
2023-01-26T22:59:00.494Z,30.42
